sensor_id;sensor_type;location;lat;lon;timestamp;P1;durP1;ratioP1;P2;durP2;ratioP2
29700;SDS011;57917;51.380;-0.176;2023-05-17T00:03:30;18.90;;;4.40;;
29700;SDS011;57917;51.380;-0.176;2023-05-17T00:09:18;14.55;;;4.15;;
29700;SDS011;57917;51.380;-0.176;2023-05-17T00:15:05;20.63;;;4.22;;
29700;SDS011;57917;51.380;-0.176;2023-05-17T00:20:52;17.55;;;4.20;;
29700;SDS011;57917;51.380;-0.176;2023-05-17T00:26:43;13.32;;;4.03;;
29700;SDS011;57917;51.380;-0.176;2023-05-17T00:32:30;17.73;;;5.18;;
29700;SDS011;57917;51.380;-0.176;2023-05-17T00:38:18;16.38;;;4.93;;
29700;SDS011;57917;51.380;-0.176;2023-05-17T00:44:07;13.45;;;4.13;;
29700;SDS011;57917;51.380;-0.176;2023-05-17T00:49:55;11.82;;;3.47;;
29700;SDS011;57917;51.380;-0.176;2023-05-17T00:55:49;8.00;;;3.75;;
29700;SDS011;57917;51.380;-0.176;2023-05-17T01:01:37;24.38;;;8.52;;
29700;SDS011;57917;51.380;-0.176;2023-05-17T01:07:28;11.05;;;3.90;;
29700;SDS011;57917;51.380;-0.176;2023-05-17T01:25:06;18.42;;;4.85;;
29700;SDS011;57917;51.380;-0.176;2023-05-17T01:31:00;10.00;;;3.47;;
29700;SDS011;57917;51.380;-0.176;2023-05-17T01:36:48;11.25;;;3.40;;
29700;SDS011;57917;51.380;-0.176;2023-05-17T01:42:37;12.25;;;3.80;;
29700;SDS011;57917;51.380;-0.176;2023-05-17T01:48:33;11.27;;;4.30;;
29700;SDS011;57917;51.380;-0.176;2023-05-17T01:54:27;14.35;;;3.35;;
29700;SDS011;57917;51.380;-0.176;2023-05-17T02:00:25;9.68;;;3.40;;
29700;SDS011;57917;51.380;-0.176;2023-05-17T02:06:19;10.43;;;2.92;;
29700;SDS011;57917;51.380;-0.176;2023-05-17T02:12:10;16.45;;;3.58;;
29700;SDS011;57917;51.380;-0.176;2023-05-17T02:17:59;7.25;;;2.95;;
29700;SDS011;57917;51.380;-0.176;2023-05-17T02:23:47;9.40;;;3.35;;
29700;SDS011;57917;51.380;-0.176;2023-05-17T02:29:37;11.60;;;3.30;;
29700;SDS011;57917;51.380;-0.176;2023-05-17T02:35:24;11.75;;;3.38;;
29700;SDS011;57917;51.380;-0.176;2023-05-17T02:41:13;6.97;;;3.00;;
29700;SDS011;57917;51.380;-0.176;2023-05-17T02:47:03;10.15;;;2.78;;
29700;SDS011;57917;51.380;-0.176;2023-05-17T02:52:51;15.73;;;3.47;;
29700;SDS011;57917;51.380;-0.176;2023-05-17T02:58:43;16.80;;;3.25;;
29700;SDS011;57917;51.380;-0.176;2023-05-17T03:04:31;6.97;;;2.92;;
29700;SDS011;57917;51.380;-0.176;2023-05-17T03:10:21;9.85;;;3.17;;
29700;SDS011;57917;51.380;-0.176;2023-05-17T03:16:08;7.43;;;3.10;;
29700;SDS011;57917;51.380;-0.176;2023-05-17T03:21:56;8.35;;;3.00;;
29700;SDS011;57917;51.380;-0.176;2023-05-17T03:27:49;8.18;;;2.97;;
29700;SDS011;57917;51.380;-0.176;2023-05-17T03:33:36;14.90;;;3.55;;
29700;SDS011;57917;51.380;-0.176;2023-05-17T03:39:26;7.97;;;2.72;;
29700;SDS011;57917;51.380;-0.176;2023-05-17T03:45:15;13.10;;;3.17;;
29700;SDS011;57917;51.380;-0.176;2023-05-17T03:51:04;10.55;;;3.17;;
29700;SDS011;57917;51.380;-0.176;2023-05-17T03:56:53;9.88;;;3.15;;
29700;SDS011;57917;51.380;-0.176;2023-05-17T04:02:42;8.90;;;3.28;;
29700;SDS011;57917;51.380;-0.176;2023-05-17T04:08:34;8.70;;;2.85;;
29700;SDS011;57917;51.380;-0.176;2023-05-17T04:14:21;8.13;;;2.80;;
29700;SDS011;57917;51.380;-0.176;2023-05-17T04:20:09;8.95;;;3.30;;
29700;SDS011;57917;51.380;-0.176;2023-05-17T04:26:00;15.63;;;3.15;;
29700;SDS011;57917;51.380;-0.176;2023-05-17T04:31:50;14.63;;;3.55;;
29700;SDS011;57917;51.380;-0.176;2023-05-17T04:37:38;17.30;;;3.80;;
29700;SDS011;57917;51.380;-0.176;2023-05-17T04:43:35;7.50;;;3.13;;
29700;SDS011;57917;51.380;-0.176;2023-05-17T04:49:29;7.72;;;3.67;;
29700;SDS011;57917;51.380;-0.176;2023-05-17T04:55:18;13.55;;;3.50;;
29700;SDS011;57917;51.380;-0.176;2023-05-17T05:01:07;14.30;;;3.50;;
29700;SDS011;57917;51.380;-0.176;2023-05-17T05:06:54;6.57;;;3.25;;
29700;SDS011;57917;51.380;-0.176;2023-05-17T05:12:42;11.15;;;3.35;;
29700;SDS011;57917;51.380;-0.176;2023-05-17T05:18:31;8.52;;;2.85;;
29700;SDS011;57917;51.380;-0.176;2023-05-17T05:24:21;26.95;;;3.33;;
29700;SDS011;57917;51.380;-0.176;2023-05-17T05:30:09;8.90;;;3.63;;
29700;SDS011;57917;51.380;-0.176;2023-05-17T05:35:58;8.05;;;3.95;;
29700;SDS011;57917;51.380;-0.176;2023-05-17T05:41:45;19.05;;;3.85;;
29700;SDS011;57917;51.380;-0.176;2023-05-17T05:47:38;9.95;;;3.58;;
29700;SDS011;57917;51.380;-0.176;2023-05-17T05:53:25;7.68;;;3.28;;
29700;SDS011;57917;51.380;-0.176;2023-05-17T05:59:14;12.02;;;4.00;;
29700;SDS011;57917;51.380;-0.176;2023-05-17T06:05:03;8.13;;;3.15;;
29700;SDS011;57917;51.380;-0.176;2023-05-17T06:10:51;9.65;;;3.40;;
29700;SDS011;57917;51.380;-0.176;2023-05-17T06:16:42;12.85;;;4.57;;
29700;SDS011;57917;51.380;-0.176;2023-05-17T06:22:29;8.77;;;3.75;;
29700;SDS011;57917;51.380;-0.176;2023-05-17T06:28:16;17.00;;;3.63;;
29700;SDS011;57917;51.380;-0.176;2023-05-17T06:34:06;10.35;;;3.60;;
29700;SDS011;57917;51.380;-0.176;2023-05-17T06:40:03;11.63;;;3.63;;
29700;SDS011;57917;51.380;-0.176;2023-05-17T06:46:02;9.00;;;3.58;;
29700;SDS011;57917;51.380;-0.176;2023-05-17T06:51:50;10.77;;;3.42;;
29700;SDS011;57917;51.380;-0.176;2023-05-17T06:57:37;10.70;;;3.35;;
29700;SDS011;57917;51.380;-0.176;2023-05-17T07:03:27;14.80;;;3.85;;
29700;SDS011;57917;51.380;-0.176;2023-05-17T07:09:17;15.15;;;3.50;;
29700;SDS011;57917;51.380;-0.176;2023-05-17T07:15:04;10.18;;;3.95;;
29700;SDS011;57917;51.380;-0.176;2023-05-17T07:20:52;19.42;;;3.13;;
29700;SDS011;57917;51.380;-0.176;2023-05-17T07:26:42;10.98;;;4.53;;
29700;SDS011;57917;51.380;-0.176;2023-05-17T07:32:31;19.90;;;4.15;;
29700;SDS011;57917;51.380;-0.176;2023-05-17T07:38:19;10.52;;;4.30;;
29700;SDS011;57917;51.380;-0.176;2023-05-17T07:44:11;16.77;;;4.13;;
29700;SDS011;57917;51.380;-0.176;2023-05-17T07:49:58;14.55;;;3.78;;
29700;SDS011;57917;51.380;-0.176;2023-05-17T07:55:49;17.83;;;4.82;;
29700;SDS011;57917;51.380;-0.176;2023-05-17T08:01:37;10.63;;;3.83;;
29700;SDS011;57917;51.380;-0.176;2023-05-17T08:07:25;11.30;;;3.45;;
29700;SDS011;57917;51.380;-0.176;2023-05-17T08:13:14;12.13;;;3.65;;
29700;SDS011;57917;51.380;-0.176;2023-05-17T08:19:02;13.65;;;4.07;;
29700;SDS011;57917;51.380;-0.176;2023-05-17T08:24:49;17.40;;;4.00;;
29700;SDS011;57917;51.380;-0.176;2023-05-17T08:30:36;14.40;;;4.25;;
29700;SDS011;57917;51.380;-0.176;2023-05-17T08:36:32;9.02;;;3.75;;
29700;SDS011;57917;51.380;-0.176;2023-05-17T08:42:20;10.63;;;3.90;;
29700;SDS011;57917;51.380;-0.176;2023-05-17T08:48:13;10.98;;;3.15;;
29700;SDS011;57917;51.380;-0.176;2023-05-17T08:54:03;9.63;;;3.15;;
29700;SDS011;57917;51.380;-0.176;2023-05-17T09:05:44;9.52;;;2.95;;
29700;SDS011;57917;51.380;-0.176;2023-05-17T09:11:31;11.07;;;3.85;;
29700;SDS011;57917;51.380;-0.176;2023-05-17T09:17:19;11.00;;;3.50;;
29700;SDS011;57917;51.380;-0.176;2023-05-17T09:23:09;8.70;;;3.30;;
29700;SDS011;57917;51.380;-0.176;2023-05-17T09:29:00;7.65;;;2.92;;
29700;SDS011;57917;51.380;-0.176;2023-05-17T09:34:47;7.78;;;2.53;;
29700;SDS011;57917;51.380;-0.176;2023-05-17T09:40:44;9.77;;;2.60;;
29700;SDS011;57917;51.380;-0.176;2023-05-17T09:46:36;9.05;;;3.20;;
29700;SDS011;57917;51.380;-0.176;2023-05-17T09:52:27;9.52;;;2.72;;
29700;SDS011;57917;51.380;-0.176;2023-05-17T09:58:22;8.95;;;3.30;;
29700;SDS011;57917;51.380;-0.176;2023-05-17T10:04:13;9.55;;;2.75;;
29700;SDS011;57917;51.380;-0.176;2023-05-17T10:10:06;8.38;;;3.08;;
29700;SDS011;57917;51.380;-0.176;2023-05-17T10:15:55;6.85;;;2.53;;
29700;SDS011;57917;51.380;-0.176;2023-05-17T10:21:44;12.77;;;3.25;;
29700;SDS011;57917;51.380;-0.176;2023-05-17T10:27:33;8.40;;;3.03;;
29700;SDS011;57917;51.380;-0.176;2023-05-17T10:33:20;11.35;;;3.42;;
29700;SDS011;57917;51.380;-0.176;2023-05-17T10:39:13;7.55;;;2.97;;
29700;SDS011;57917;51.380;-0.176;2023-05-17T10:45:02;8.05;;;2.92;;
29700;SDS011;57917;51.380;-0.176;2023-05-17T10:50:50;7.07;;;2.05;;
29700;SDS011;57917;51.380;-0.176;2023-05-17T10:56:48;5.60;;;2.55;;
29700;SDS011;57917;51.380;-0.176;2023-05-17T11:02:40;7.30;;;2.10;;
29700;SDS011;57917;51.380;-0.176;2023-05-17T11:08:44;6.65;;;2.15;;
29700;SDS011;57917;51.380;-0.176;2023-05-17T11:14:51;6.75;;;2.33;;
29700;SDS011;57917;51.380;-0.176;2023-05-17T11:20:40;4.97;;;2.70;;
29700;SDS011;57917;51.380;-0.176;2023-05-17T11:26:30;7.85;;;2.88;;
29700;SDS011;57917;51.380;-0.176;2023-05-17T11:32:30;4.13;;;2.20;;
29700;SDS011;57917;51.380;-0.176;2023-05-17T11:38:21;8.25;;;2.35;;
29700;SDS011;57917;51.380;-0.176;2023-05-17T11:44:12;3.92;;;1.80;;
29700;SDS011;57917;51.380;-0.176;2023-05-17T11:50:01;5.28;;;2.17;;
29700;SDS011;57917;51.380;-0.176;2023-05-17T11:55:50;6.47;;;3.17;;
29700;SDS011;57917;51.380;-0.176;2023-05-17T12:01:43;7.60;;;2.40;;
29700;SDS011;57917;51.380;-0.176;2023-05-17T12:13:20;9.68;;;2.63;;
29700;SDS011;57917;51.380;-0.176;2023-05-17T12:19:17;5.88;;;2.38;;
29700;SDS011;57917;51.380;-0.176;2023-05-17T12:25:17;6.47;;;2.55;;
29700;SDS011;57917;51.380;-0.176;2023-05-17T12:31:05;5.72;;;2.28;;
29700;SDS011;57917;51.380;-0.176;2023-05-17T12:37:05;7.50;;;2.90;;
29700;SDS011;57917;51.380;-0.176;2023-05-17T12:43:00;6.38;;;3.45;;
29700;SDS011;57917;51.380;-0.176;2023-05-17T12:48:49;4.78;;;2.42;;
29700;SDS011;57917;51.380;-0.176;2023-05-17T12:54:37;7.55;;;2.67;;
29700;SDS011;57917;51.380;-0.176;2023-05-17T13:00:27;8.50;;;3.08;;
29700;SDS011;57917;51.380;-0.176;2023-05-17T13:06:16;6.55;;;2.47;;
29700;SDS011;57917;51.380;-0.176;2023-05-17T13:12:04;7.93;;;2.92;;
29700;SDS011;57917;51.380;-0.176;2023-05-17T13:17:59;7.35;;;2.80;;
29700;SDS011;57917;51.380;-0.176;2023-05-17T13:23:58;4.70;;;2.53;;
29700;SDS011;57917;51.380;-0.176;2023-05-17T13:29:47;3.97;;;2.25;;
29700;SDS011;57917;51.380;-0.176;2023-05-17T13:35:36;8.95;;;2.50;;
29700;SDS011;57917;51.380;-0.176;2023-05-17T13:41:24;6.00;;;2.88;;
29700;SDS011;57917;51.380;-0.176;2023-05-17T13:47:11;4.63;;;2.72;;
29700;SDS011;57917;51.380;-0.176;2023-05-17T13:53:00;7.72;;;2.63;;
29700;SDS011;57917;51.380;-0.176;2023-05-17T13:58:48;8.43;;;2.58;;
29700;SDS011;57917;51.380;-0.176;2023-05-17T14:04:37;6.78;;;3.05;;
29700;SDS011;57917;51.380;-0.176;2023-05-17T14:10:25;12.80;;;3.00;;
29700;SDS011;57917;51.380;-0.176;2023-05-17T14:16:15;6.10;;;2.92;;
29700;SDS011;57917;51.380;-0.176;2023-05-17T14:22:02;5.90;;;2.55;;
29700;SDS011;57917;51.380;-0.176;2023-05-17T14:27:50;6.20;;;2.50;;
29700;SDS011;57917;51.380;-0.176;2023-05-17T14:33:37;9.35;;;3.17;;
29700;SDS011;57917;51.380;-0.176;2023-05-17T14:39:24;9.98;;;3.00;;
29700;SDS011;57917;51.380;-0.176;2023-05-17T14:45:11;8.75;;;3.05;;
29700;SDS011;57917;51.380;-0.176;2023-05-17T14:51:01;6.35;;;2.28;;
29700;SDS011;57917;51.380;-0.176;2023-05-17T14:56:51;7.65;;;2.75;;
29700;SDS011;57917;51.380;-0.176;2023-05-17T15:02:40;14.23;;;3.08;;
29700;SDS011;57917;51.380;-0.176;2023-05-17T15:08:30;16.30;;;3.33;;
29700;SDS011;57917;51.380;-0.176;2023-05-17T15:14:17;9.52;;;3.08;;
29700;SDS011;57917;51.380;-0.176;2023-05-17T15:20:08;4.50;;;2.10;;
29700;SDS011;57917;51.380;-0.176;2023-05-17T15:25:57;6.90;;;2.35;;
29700;SDS011;57917;51.380;-0.176;2023-05-17T15:31:46;8.05;;;2.83;;
29700;SDS011;57917;51.380;-0.176;2023-05-17T15:37:35;6.15;;;2.17;;
29700;SDS011;57917;51.380;-0.176;2023-05-17T15:43:22;10.82;;;2.75;;
29700;SDS011;57917;51.380;-0.176;2023-05-17T15:49:09;6.60;;;2.88;;
29700;SDS011;57917;51.380;-0.176;2023-05-17T15:54:58;5.90;;;2.40;;
29700;SDS011;57917;51.380;-0.176;2023-05-17T16:00:46;6.68;;;2.80;;
29700;SDS011;57917;51.380;-0.176;2023-05-17T16:06:35;9.20;;;2.90;;
29700;SDS011;57917;51.380;-0.176;2023-05-17T16:12:23;6.07;;;2.40;;
29700;SDS011;57917;51.380;-0.176;2023-05-17T16:18:13;4.93;;;2.22;;
29700;SDS011;57917;51.380;-0.176;2023-05-17T16:24:01;10.32;;;3.40;;
29700;SDS011;57917;51.380;-0.176;2023-05-17T16:29:52;6.90;;;2.70;;
29700;SDS011;57917;51.380;-0.176;2023-05-17T16:35:39;15.43;;;3.97;;
29700;SDS011;57917;51.380;-0.176;2023-05-17T16:41:29;13.35;;;4.35;;
29700;SDS011;57917;51.380;-0.176;2023-05-17T16:53:14;8.15;;;3.33;;
29700;SDS011;57917;51.380;-0.176;2023-05-17T16:59:05;9.80;;;3.60;;
29700;SDS011;57917;51.380;-0.176;2023-05-17T17:04:54;7.13;;;3.55;;
29700;SDS011;57917;51.380;-0.176;2023-05-17T17:10:46;9.60;;;3.10;;
29700;SDS011;57917;51.380;-0.176;2023-05-17T17:16:33;10.30;;;3.92;;
29700;SDS011;57917;51.380;-0.176;2023-05-17T17:22:20;6.80;;;3.33;;
29700;SDS011;57917;51.380;-0.176;2023-05-17T17:28:07;12.82;;;3.50;;
29700;SDS011;57917;51.380;-0.176;2023-05-17T17:33:58;8.50;;;3.58;;
29700;SDS011;57917;51.380;-0.176;2023-05-17T17:39:45;10.63;;;3.92;;
29700;SDS011;57917;51.380;-0.176;2023-05-17T17:45:32;9.43;;;4.40;;
29700;SDS011;57917;51.380;-0.176;2023-05-17T17:51:25;7.75;;;3.67;;
29700;SDS011;57917;51.380;-0.176;2023-05-17T17:57:12;9.88;;;3.88;;
29700;SDS011;57917;51.380;-0.176;2023-05-17T18:03:00;9.90;;;3.95;;
29700;SDS011;57917;51.380;-0.176;2023-05-17T18:08:48;10.70;;;4.15;;
29700;SDS011;57917;51.380;-0.176;2023-05-17T18:14:37;9.10;;;3.88;;
29700;SDS011;57917;51.380;-0.176;2023-05-17T18:20:28;15.45;;;4.32;;
29700;SDS011;57917;51.380;-0.176;2023-05-17T18:26:19;13.88;;;4.15;;
29700;SDS011;57917;51.380;-0.176;2023-05-17T18:32:07;20.98;;;3.92;;
29700;SDS011;57917;51.380;-0.176;2023-05-17T18:37:56;16.98;;;4.32;;
29700;SDS011;57917;51.380;-0.176;2023-05-17T18:43:45;8.75;;;3.33;;
29700;SDS011;57917;51.380;-0.176;2023-05-17T18:49:34;15.50;;;3.92;;
29700;SDS011;57917;51.380;-0.176;2023-05-17T18:55:26;12.45;;;3.90;;
29700;SDS011;57917;51.380;-0.176;2023-05-17T19:01:35;11.43;;;3.13;;
29700;SDS011;57917;51.380;-0.176;2023-05-17T19:07:25;11.95;;;3.78;;
29700;SDS011;57917;51.380;-0.176;2023-05-17T19:13:14;11.40;;;3.28;;
29700;SDS011;57917;51.380;-0.176;2023-05-17T19:19:03;6.60;;;2.97;;
29700;SDS011;57917;51.380;-0.176;2023-05-17T19:24:55;16.88;;;3.05;;
29700;SDS011;57917;51.380;-0.176;2023-05-17T19:30:42;17.80;;;3.53;;
29700;SDS011;57917;51.380;-0.176;2023-05-17T19:36:30;13.10;;;3.00;;
29700;SDS011;57917;51.380;-0.176;2023-05-17T19:42:20;10.68;;;2.95;;
29700;SDS011;57917;51.380;-0.176;2023-05-17T19:48:09;14.63;;;2.80;;
29700;SDS011;57917;51.380;-0.176;2023-05-17T19:53:59;16.88;;;2.38;;
29700;SDS011;57917;51.380;-0.176;2023-05-17T19:59:46;7.47;;;2.05;;
29700;SDS011;57917;51.380;-0.176;2023-05-17T20:05:40;15.90;;;2.67;;
29700;SDS011;57917;51.380;-0.176;2023-05-17T20:11:34;11.48;;;2.40;;
29700;SDS011;57917;51.380;-0.176;2023-05-17T20:17:22;10.63;;;2.25;;
29700;SDS011;57917;51.380;-0.176;2023-05-17T20:23:11;8.35;;;2.10;;
29700;SDS011;57917;51.380;-0.176;2023-05-17T20:29:00;14.00;;;2.83;;
29700;SDS011;57917;51.380;-0.176;2023-05-17T20:34:58;21.02;;;2.97;;
29700;SDS011;57917;51.380;-0.176;2023-05-17T20:40:50;13.07;;;1.92;;
29700;SDS011;57917;51.380;-0.176;2023-05-17T20:46:39;4.50;;;1.88;;
29700;SDS011;57917;51.380;-0.176;2023-05-17T20:52:47;14.82;;;2.70;;
29700;SDS011;57917;51.380;-0.176;2023-05-17T21:00:24;7.80;;;2.15;;
29700;SDS011;57917;51.380;-0.176;2023-05-17T21:07:43;9.85;;;2.72;;
29700;SDS011;57917;51.380;-0.176;2023-05-17T21:13:40;11.60;;;2.35;;
29700;SDS011;57917;51.380;-0.176;2023-05-17T21:19:33;12.73;;;2.10;;
29700;SDS011;57917;51.380;-0.176;2023-05-17T21:25:23;13.95;;;2.90;;
29700;SDS011;57917;51.380;-0.176;2023-05-17T21:31:14;21.00;;;3.08;;
29700;SDS011;57917;51.380;-0.176;2023-05-17T21:37:05;11.95;;;1.90;;
29700;SDS011;57917;51.380;-0.176;2023-05-17T21:43:32;9.80;;;2.55;;
29700;SDS011;57917;51.380;-0.176;2023-05-17T21:49:20;16.73;;;2.60;;
29700;SDS011;57917;51.380;-0.176;2023-05-17T21:55:07;8.88;;;2.65;;
29700;SDS011;57917;51.380;-0.176;2023-05-17T22:00:58;26.02;;;2.95;;
29700;SDS011;57917;51.380;-0.176;2023-05-17T22:13:40;20.40;;;4.75;;
29700;SDS011;57917;51.380;-0.176;2023-05-17T22:19:31;15.38;;;4.95;;
29700;SDS011;57917;51.380;-0.176;2023-05-17T22:25:21;16.88;;;7.05;;
29700;SDS011;57917;51.380;-0.176;2023-05-17T22:31:12;20.35;;;4.70;;
29700;SDS011;57917;51.380;-0.176;2023-05-17T22:37:00;14.52;;;4.60;;
29700;SDS011;57917;51.380;-0.176;2023-05-17T22:42:51;14.95;;;4.30;;
29700;SDS011;57917;51.380;-0.176;2023-05-17T22:48:48;11.90;;;3.17;;
29700;SDS011;57917;51.380;-0.176;2023-05-17T22:54:38;13.27;;;3.80;;
29700;SDS011;57917;51.380;-0.176;2023-05-17T23:00:25;8.15;;;2.60;;
29700;SDS011;57917;51.380;-0.176;2023-05-17T23:06:14;9.50;;;1.83;;
29700;SDS011;57917;51.380;-0.176;2023-05-17T23:12:01;5.28;;;1.42;;
29700;SDS011;57917;51.380;-0.176;2023-05-17T23:17:54;10.52;;;1.52;;
29700;SDS011;57917;51.380;-0.176;2023-05-17T23:23:43;4.47;;;1.58;;
29700;SDS011;57917;51.380;-0.176;2023-05-17T23:29:29;9.00;;;2.50;;
29700;SDS011;57917;51.380;-0.176;2023-05-17T23:35:19;6.95;;;1.88;;
29700;SDS011;57917;51.380;-0.176;2023-05-17T23:41:13;4.47;;;1.75;;
29700;SDS011;57917;51.380;-0.176;2023-05-17T23:47:04;2.63;;;1.30;;
29700;SDS011;57917;51.380;-0.176;2023-05-17T23:52:53;4.78;;;1.70;;
29700;SDS011;57917;51.380;-0.176;2023-05-17T23:58:43;5.03;;;1.75;;
